Terminal Aerodrome Forecast
Issued by NWS Mt. Holly, NJ

Current Version | Previous Version | Text Only | Print | Product List | Glossary On
Versions: 1 2 3 4 5 6 7 8 9 10 11 12 13 14 15 16 17 18 19 20 21 22 23 24 25
629
FTUS41 KPHI 210336 AAB
TAFABE
TAF AMD
KABE 210336Z 2104/2124 VRB02KT 1/4SM -DZ FG BKN003
     FM211400 23006KT 4SM BR BKN035
     FM211800 24007KT P6SM BKN035=

USA.gov is the U.S. government's official web portal to all federal, state and local government web resources and services.